sensor_id;sensor_type;location;lat;lon;timestamp;P1;durP1;ratioP1;P2;durP2;ratioP2
19089;SDS011;9677;50.656;13.064;2023-10-19T00:00:55;13.17;;;11.87;;
19089;SDS011;9677;50.656;13.064;2023-10-19T00:03:26;12.90;;;11.70;;
19089;SDS011;9677;50.656;13.064;2023-10-19T00:05:55;15.33;;;12.67;;
19089;SDS011;9677;50.656;13.064;2023-10-19T00:08:24;13.97;;;12.57;;
19089;SDS011;9677;50.656;13.064;2023-10-19T00:10:54;15.30;;;11.90;;
19089;SDS011;9677;50.656;13.064;2023-10-19T00:13:30;13.87;;;12.13;;
19089;SDS011;9677;50.656;13.064;2023-10-19T00:15:58;12.03;;;10.80;;
19089;SDS011;9677;50.656;13.064;2023-10-19T00:18:27;12.87;;;11.67;;
19089;SDS011;9677;50.656;13.064;2023-10-19T00:20:59;12.53;;;11.33;;
19089;SDS011;9677;50.656;13.064;2023-10-19T00:23:37;12.80;;;11.40;;
19089;SDS011;9677;50.656;13.064;2023-10-19T00:26:07;13.33;;;11.87;;
19089;SDS011;9677;50.656;13.064;2023-10-19T00:28:45;12.83;;;11.63;;
19089;SDS011;9677;50.656;13.064;2023-10-19T00:31:19;12.73;;;11.40;;
19089;SDS011;9677;50.656;13.064;2023-10-19T00:33:48;13.27;;;11.53;;
19089;SDS011;9677;50.656;13.064;2023-10-19T00:36:18;16.13;;;11.77;;
19089;SDS011;9677;50.656;13.064;2023-10-19T00:38:48;13.23;;;11.93;;
19089;SDS011;9677;50.656;13.064;2023-10-19T00:41:20;12.63;;;11.33;;
19089;SDS011;9677;50.656;13.064;2023-10-19T00:43:58;13.47;;;12.07;;
19089;SDS011;9677;50.656;13.064;2023-10-19T00:46:34;12.60;;;11.30;;
19089;SDS011;9677;50.656;13.064;2023-10-19T00:49:11;13.03;;;11.73;;
19089;SDS011;9677;50.656;13.064;2023-10-19T00:51:42;13.53;;;12.23;;
19089;SDS011;9677;50.656;13.064;2023-10-19T00:54:22;12.83;;;11.57;;
19089;SDS011;9677;50.656;13.064;2023-10-19T00:57:00;12.63;;;11.33;;
19089;SDS011;9677;50.656;13.064;2023-10-19T00:59:34;12.57;;;11.37;;
19089;SDS011;9677;50.656;13.064;2023-10-19T01:02:10;12.30;;;10.93;;
19089;SDS011;9677;50.656;13.064;2023-10-19T01:04:47;13.13;;;11.80;;
19089;SDS011;9677;50.656;13.064;2023-10-19T01:07:23;13.77;;;12.27;;
19089;SDS011;9677;50.656;13.064;2023-10-19T01:09:56;12.57;;;11.30;;
19089;SDS011;9677;50.656;13.064;2023-10-19T01:12:26;13.33;;;11.80;;
19089;SDS011;9677;50.656;13.064;2023-10-19T01:15:08;12.83;;;11.57;;
19089;SDS011;9677;50.656;13.064;2023-10-19T01:17:41;14.80;;;11.47;;
19089;SDS011;9677;50.656;13.064;2023-10-19T01:20:12;15.30;;;11.90;;
19089;SDS011;9677;50.656;13.064;2023-10-19T01:22:51;12.47;;;11.13;;
19089;SDS011;9677;50.656;13.064;2023-10-19T01:25:33;12.93;;;11.67;;
19089;SDS011;9677;50.656;13.064;2023-10-19T01:28:12;13.17;;;11.87;;
19089;SDS011;9677;50.656;13.064;2023-10-19T01:30:43;12.20;;;11.10;;
19089;SDS011;9677;50.656;13.064;2023-10-19T01:33:13;12.23;;;11.03;;
19089;SDS011;9677;50.656;13.064;2023-10-19T01:35:43;12.87;;;11.47;;
19089;SDS011;9677;50.656;13.064;2023-10-19T01:38:30;12.77;;;11.50;;
19089;SDS011;9677;50.656;13.064;2023-10-19T01:40:59;13.03;;;11.77;;
19089;SDS011;9677;50.656;13.064;2023-10-19T01:43:32;12.20;;;11.00;;
19089;SDS011;9677;50.656;13.064;2023-10-19T01:46:01;12.57;;;11.27;;
19089;SDS011;9677;50.656;13.064;2023-10-19T01:48:31;12.10;;;10.80;;
19089;SDS011;9677;50.656;13.064;2023-10-19T01:51:02;12.33;;;11.20;;
19089;SDS011;9677;50.656;13.064;2023-10-19T01:53:32;12.80;;;11.60;;
19089;SDS011;9677;50.656;13.064;2023-10-19T01:56:03;12.43;;;11.27;;
19089;SDS011;9677;50.656;13.064;2023-10-19T01:58:32;12.37;;;11.07;;
19089;SDS011;9677;50.656;13.064;2023-10-19T02:01:03;13.50;;;11.50;;
19089;SDS011;9677;50.656;13.064;2023-10-19T02:03:35;12.87;;;11.60;;
19089;SDS011;9677;50.656;13.064;2023-10-19T02:06:08;13.10;;;11.80;;
19089;SDS011;9677;50.656;13.064;2023-10-19T02:08:48;13.00;;;11.70;;
19089;SDS011;9677;50.656;13.064;2023-10-19T02:11:21;11.90;;;10.80;;
19089;SDS011;9677;50.656;13.064;2023-10-19T02:13:50;13.83;;;12.43;;
19089;SDS011;9677;50.656;13.064;2023-10-19T02:16:20;14.90;;;11.27;;
19089;SDS011;9677;50.656;13.064;2023-10-19T02:18:49;12.63;;;11.43;;
19089;SDS011;9677;50.656;13.064;2023-10-19T02:21:18;14.00;;;12.10;;
19089;SDS011;9677;50.656;13.064;2023-10-19T02:23:50;12.97;;;11.67;;
19089;SDS011;9677;50.656;13.064;2023-10-19T02:26:18;12.63;;;11.43;;
19089;SDS011;9677;50.656;13.064;2023-10-19T02:28:49;12.63;;;11.43;;
19089;SDS011;9677;50.656;13.064;2023-10-19T02:31:18;13.37;;;12.10;;
19089;SDS011;9677;50.656;13.064;2023-10-19T02:33:48;12.63;;;11.43;;
19089;SDS011;9677;50.656;13.064;2023-10-19T02:36:25;13.80;;;11.30;;
19089;SDS011;9677;50.656;13.064;2023-10-19T02:38:56;12.30;;;11.10;;
19089;SDS011;9677;50.656;13.064;2023-10-19T02:41:25;12.50;;;11.20;;
19089;SDS011;9677;50.656;13.064;2023-10-19T02:43:55;12.80;;;11.50;;
19089;SDS011;9677;50.656;13.064;2023-10-19T02:46:28;12.60;;;11.40;;
19089;SDS011;9677;50.656;13.064;2023-10-19T02:49:00;13.17;;;11.87;;
19089;SDS011;9677;50.656;13.064;2023-10-19T02:51:27;12.30;;;11.20;;
19089;SDS011;9677;50.656;13.064;2023-10-19T02:53:57;12.57;;;11.27;;
19089;SDS011;9677;50.656;13.064;2023-10-19T02:56:28;13.50;;;12.10;;
19089;SDS011;9677;50.656;13.064;2023-10-19T02:58:57;13.00;;;11.73;;
19089;SDS011;9677;50.656;13.064;2023-10-19T03:01:30;14.13;;;12.00;;
19089;SDS011;9677;50.656;13.064;2023-10-19T03:04:00;13.00;;;11.80;;
19089;SDS011;9677;50.656;13.064;2023-10-19T03:06:29;12.83;;;11.50;;
19089;SDS011;9677;50.656;13.064;2023-10-19T03:09:03;13.10;;;11.73;;
19089;SDS011;9677;50.656;13.064;2023-10-19T03:11:39;12.80;;;11.50;;
19089;SDS011;9677;50.656;13.064;2023-10-19T03:14:07;14.13;;;12.07;;
19089;SDS011;9677;50.656;13.064;2023-10-19T03:16:36;13.30;;;12.10;;
19089;SDS011;9677;50.656;13.064;2023-10-19T03:19:04;12.90;;;11.63;;
19089;SDS011;9677;50.656;13.064;2023-10-19T03:21:34;12.03;;;10.93;;
19089;SDS011;9677;50.656;13.064;2023-10-19T03:24:11;12.20;;;11.10;;
19089;SDS011;9677;50.656;13.064;2023-10-19T03:26:42;13.27;;;11.97;;
19089;SDS011;9677;50.656;13.064;2023-10-19T03:29:15;13.47;;;12.20;;
19089;SDS011;9677;50.656;13.064;2023-10-19T03:31:49;12.93;;;11.70;;
19089;SDS011;9677;50.656;13.064;2023-10-19T03:34:18;12.57;;;11.37;;
19089;SDS011;9677;50.656;13.064;2023-10-19T03:36:50;12.73;;;11.50;;
19089;SDS011;9677;50.656;13.064;2023-10-19T03:39:20;12.67;;;11.57;;
19089;SDS011;9677;50.656;13.064;2023-10-19T03:41:49;13.37;;;12.07;;
19089;SDS011;9677;50.656;13.064;2023-10-19T03:44:19;13.07;;;11.87;;
19089;SDS011;9677;50.656;13.064;2023-10-19T03:46:51;12.67;;;11.47;;
19089;SDS011;9677;50.656;13.064;2023-10-19T03:49:24;13.20;;;11.90;;
19089;SDS011;9677;50.656;13.064;2023-10-19T03:51:57;12.10;;;11.00;;
19089;SDS011;9677;50.656;13.064;2023-10-19T03:54:28;12.83;;;11.63;;
19089;SDS011;9677;50.656;13.064;2023-10-19T03:56:59;12.10;;;11.00;;
19089;SDS011;9677;50.656;13.064;2023-10-19T03:59:32;12.47;;;11.27;;
19089;SDS011;9677;50.656;13.064;2023-10-19T04:02:01;12.30;;;11.20;;
19089;SDS011;9677;50.656;13.064;2023-10-19T04:04:36;12.30;;;11.20;;
19089;SDS011;9677;50.656;13.064;2023-10-19T04:07:06;11.87;;;10.67;;
19089;SDS011;9677;50.656;13.064;2023-10-19T04:09:46;11.73;;;10.63;;
19089;SDS011;9677;50.656;13.064;2023-10-19T04:12:26;11.67;;;10.57;;
19089;SDS011;9677;50.656;13.064;2023-10-19T04:14:57;11.67;;;10.60;;
19089;SDS011;9677;50.656;13.064;2023-10-19T04:17:35;11.37;;;10.37;;
19089;SDS011;9677;50.656;13.064;2023-10-19T04:20:05;12.20;;;11.10;;
19089;SDS011;9677;50.656;13.064;2023-10-19T04:22:52;11.47;;;10.30;;
19089;SDS011;9677;50.656;13.064;2023-10-19T04:25:22;11.43;;;10.43;;
19089;SDS011;9677;50.656;13.064;2023-10-19T04:27:52;11.70;;;10.60;;
19089;SDS011;9677;50.656;13.064;2023-10-19T04:30:23;11.73;;;10.57;;
19089;SDS011;9677;50.656;13.064;2023-10-19T04:32:53;11.43;;;10.33;;
19089;SDS011;9677;50.656;13.064;2023-10-19T04:35:24;13.00;;;11.80;;
19089;SDS011;9677;50.656;13.064;2023-10-19T04:37:56;12.00;;;10.90;;
19089;SDS011;9677;50.656;13.064;2023-10-19T04:40:27;12.63;;;11.40;;
19089;SDS011;9677;50.656;13.064;2023-10-19T04:42:56;12.60;;;11.43;;
19089;SDS011;9677;50.656;13.064;2023-10-19T04:45:24;12.00;;;10.90;;
19089;SDS011;9677;50.656;13.064;2023-10-19T04:47:52;12.07;;;10.87;;
19089;SDS011;9677;50.656;13.064;2023-10-19T04:50:21;12.03;;;10.93;;
19089;SDS011;9677;50.656;13.064;2023-10-19T04:52:50;12.77;;;11.50;;
19089;SDS011;9677;50.656;13.064;2023-10-19T04:55:18;12.70;;;11.40;;
19089;SDS011;9677;50.656;13.064;2023-10-19T04:57:48;11.77;;;10.67;;
19089;SDS011;9677;50.656;13.064;2023-10-19T05:00:17;12.23;;;11.13;;
19089;SDS011;9677;50.656;13.064;2023-10-19T05:02:47;11.83;;;10.73;;
19089;SDS011;9677;50.656;13.064;2023-10-19T05:05:18;12.70;;;11.40;;
19089;SDS011;9677;50.656;13.064;2023-10-19T05:07:47;12.33;;;11.13;;
19089;SDS011;9677;50.656;13.064;2023-10-19T05:10:15;11.83;;;10.73;;
19089;SDS011;9677;50.656;13.064;2023-10-19T05:12:47;12.03;;;10.93;;
19089;SDS011;9677;50.656;13.064;2023-10-19T05:15:16;12.47;;;11.20;;
19089;SDS011;9677;50.656;13.064;2023-10-19T05:17:45;12.60;;;11.30;;
19089;SDS011;9677;50.656;13.064;2023-10-19T05:20:14;12.17;;;11.07;;
19089;SDS011;9677;50.656;13.064;2023-10-19T05:22:43;12.53;;;11.33;;
19089;SDS011;9677;50.656;13.064;2023-10-19T05:25:12;12.67;;;11.47;;
19089;SDS011;9677;50.656;13.064;2023-10-19T05:27:40;12.67;;;11.47;;
19089;SDS011;9677;50.656;13.064;2023-10-19T05:30:13;12.03;;;10.93;;
19089;SDS011;9677;50.656;13.064;2023-10-19T05:32:42;12.13;;;11.03;;
19089;SDS011;9677;50.656;13.064;2023-10-19T05:35:12;12.47;;;11.27;;
19089;SDS011;9677;50.656;13.064;2023-10-19T05:37:49;12.47;;;11.27;;
19089;SDS011;9677;50.656;13.064;2023-10-19T05:40:17;11.93;;;10.80;;
19089;SDS011;9677;50.656;13.064;2023-10-19T05:42:45;12.00;;;10.90;;
19089;SDS011;9677;50.656;13.064;2023-10-19T05:45:15;12.90;;;11.70;;
19089;SDS011;9677;50.656;13.064;2023-10-19T05:47:43;13.10;;;11.80;;
19089;SDS011;9677;50.656;13.064;2023-10-19T05:50:11;12.57;;;11.37;;
19089;SDS011;9677;50.656;13.064;2023-10-19T05:52:41;13.67;;;12.30;;
19089;SDS011;9677;50.656;13.064;2023-10-19T05:55:10;12.80;;;11.50;;
19089;SDS011;9677;50.656;13.064;2023-10-19T05:57:39;12.80;;;11.60;;
19089;SDS011;9677;50.656;13.064;2023-10-19T06:00:08;12.20;;;11.10;;
19089;SDS011;9677;50.656;13.064;2023-10-19T06:02:43;12.80;;;11.60;;
19089;SDS011;9677;50.656;13.064;2023-10-19T06:05:13;12.97;;;11.70;;
19089;SDS011;9677;50.656;13.064;2023-10-19T06:07:43;12.60;;;11.43;;
19089;SDS011;9677;50.656;13.064;2023-10-19T06:10:12;12.53;;;11.30;;
19089;SDS011;9677;50.656;13.064;2023-10-19T06:12:47;12.57;;;11.37;;
19089;SDS011;9677;50.656;13.064;2023-10-19T06:15:17;11.90;;;10.80;;
19089;SDS011;9677;50.656;13.064;2023-10-19T06:17:49;12.20;;;11.00;;
19089;SDS011;9677;50.656;13.064;2023-10-19T06:20:19;12.93;;;11.63;;
19089;SDS011;9677;50.656;13.064;2023-10-19T06:22:51;11.50;;;10.40;;
19089;SDS011;9677;50.656;13.064;2023-10-19T06:25:21;12.10;;;11.00;;
19089;SDS011;9677;50.656;13.064;2023-10-19T06:27:52;12.13;;;10.93;;
19089;SDS011;9677;50.656;13.064;2023-10-19T06:30:24;12.63;;;11.33;;
19089;SDS011;9677;50.656;13.064;2023-10-19T06:32:54;12.17;;;11.00;;
19089;SDS011;9677;50.656;13.064;2023-10-19T06:35:27;11.83;;;10.73;;
19089;SDS011;9677;50.656;13.064;2023-10-19T06:37:58;11.97;;;10.87;;
19089;SDS011;9677;50.656;13.064;2023-10-19T06:40:30;11.70;;;10.60;;
19089;SDS011;9677;50.656;13.064;2023-10-19T06:43:02;12.23;;;11.13;;
19089;SDS011;9677;50.656;13.064;2023-10-19T06:45:32;12.03;;;10.83;;
19089;SDS011;9677;50.656;13.064;2023-10-19T06:48:02;11.90;;;10.80;;
19089;SDS011;9677;50.656;13.064;2023-10-19T06:50:33;12.30;;;11.10;;
19089;SDS011;9677;50.656;13.064;2023-10-19T06:53:02;11.27;;;10.17;;
19089;SDS011;9677;50.656;13.064;2023-10-19T06:55:32;11.80;;;10.70;;
19089;SDS011;9677;50.656;13.064;2023-10-19T06:58:00;11.40;;;10.30;;
19089;SDS011;9677;50.656;13.064;2023-10-19T07:00:28;11.77;;;10.67;;
19089;SDS011;9677;50.656;13.064;2023-10-19T07:02:57;11.90;;;10.77;;
19089;SDS011;9677;50.656;13.064;2023-10-19T07:05:28;11.87;;;10.67;;
19089;SDS011;9677;50.656;13.064;2023-10-19T07:07:57;12.60;;;11.30;;
19089;SDS011;9677;50.656;13.064;2023-10-19T07:10:28;11.87;;;10.77;;
19089;SDS011;9677;50.656;13.064;2023-10-19T07:12:56;12.03;;;10.93;;
19089;SDS011;9677;50.656;13.064;2023-10-19T07:15:25;11.50;;;10.40;;
19089;SDS011;9677;50.656;13.064;2023-10-19T07:17:56;12.13;;;10.93;;
19089;SDS011;9677;50.656;13.064;2023-10-19T07:20:25;11.87;;;10.77;;
19089;SDS011;9677;50.656;13.064;2023-10-19T07:22:55;11.70;;;10.60;;
19089;SDS011;9677;50.656;13.064;2023-10-19T07:25:27;12.60;;;11.40;;
19089;SDS011;9677;50.656;13.064;2023-10-19T07:27:55;11.93;;;10.73;;
19089;SDS011;9677;50.656;13.064;2023-10-19T07:30:26;11.63;;;10.53;;
19089;SDS011;9677;50.656;13.064;2023-10-19T07:32:54;12.00;;;10.90;;
19089;SDS011;9677;50.656;13.064;2023-10-19T07:35:25;12.20;;;11.00;;
19089;SDS011;9677;50.656;13.064;2023-10-19T07:37:55;11.50;;;10.40;;
19089;SDS011;9677;50.656;13.064;2023-10-19T07:40:24;11.20;;;10.13;;
19089;SDS011;9677;50.656;13.064;2023-10-19T07:42:52;11.30;;;10.20;;
19089;SDS011;9677;50.656;13.064;2023-10-19T07:45:21;11.90;;;10.70;;
19089;SDS011;9677;50.656;13.064;2023-10-19T07:47:49;11.77;;;10.67;;
19089;SDS011;9677;50.656;13.064;2023-10-19T07:50:18;12.20;;;11.00;;
19089;SDS011;9677;50.656;13.064;2023-10-19T07:52:49;11.70;;;10.60;;
19089;SDS011;9677;50.656;13.064;2023-10-19T07:55:21;12.40;;;11.20;;
19089;SDS011;9677;50.656;13.064;2023-10-19T07:57:50;11.67;;;10.57;;
19089;SDS011;9677;50.656;13.064;2023-10-19T08:00:20;12.17;;;10.97;;
19089;SDS011;9677;50.656;13.064;2023-10-19T08:02:50;12.30;;;11.10;;
19089;SDS011;9677;50.656;13.064;2023-10-19T08:05:20;11.60;;;10.50;;
19089;SDS011;9677;50.656;13.064;2023-10-19T08:07:48;12.10;;;11.00;;
19089;SDS011;9677;50.656;13.064;2023-10-19T08:10:17;11.50;;;10.40;;
19089;SDS011;9677;50.656;13.064;2023-10-19T08:12:48;12.00;;;10.50;;
19089;SDS011;9677;50.656;13.064;2023-10-19T08:15:18;12.13;;;10.93;;
19089;SDS011;9677;50.656;13.064;2023-10-19T08:17:48;11.40;;;10.40;;
19089;SDS011;9677;50.656;13.064;2023-10-19T08:20:20;11.97;;;10.77;;
19089;SDS011;9677;50.656;13.064;2023-10-19T08:22:57;12.47;;;11.27;;
19089;SDS011;9677;50.656;13.064;2023-10-19T08:25:28;12.50;;;11.20;;
19089;SDS011;9677;50.656;13.064;2023-10-19T08:28:14;11.93;;;10.83;;
19089;SDS011;9677;50.656;13.064;2023-10-19T08:30:44;11.93;;;10.37;;
19089;SDS011;9677;50.656;13.064;2023-10-19T08:33:23;12.60;;;11.40;;
19089;SDS011;9677;50.656;13.064;2023-10-19T08:35:52;12.20;;;11.10;;
19089;SDS011;9677;50.656;13.064;2023-10-19T08:38:21;12.20;;;11.00;;
19089;SDS011;9677;50.656;13.064;2023-10-19T08:40:50;12.03;;;10.83;;
19089;SDS011;9677;50.656;13.064;2023-10-19T08:43:20;11.63;;;10.53;;
19089;SDS011;9677;50.656;13.064;2023-10-19T08:45:48;12.27;;;11.07;;
19089;SDS011;9677;50.656;13.064;2023-10-19T08:48:17;11.70;;;10.60;;
19089;SDS011;9677;50.656;13.064;2023-10-19T08:50:47;11.40;;;10.20;;
19089;SDS011;9677;50.656;13.064;2023-10-19T08:53:15;11.67;;;10.60;;
19089;SDS011;9677;50.656;13.064;2023-10-19T08:55:46;11.97;;;10.77;;
19089;SDS011;9677;50.656;13.064;2023-10-19T08:58:16;11.57;;;10.57;;
19089;SDS011;9677;50.656;13.064;2023-10-19T09:00:47;11.53;;;10.43;;
19089;SDS011;9677;50.656;13.064;2023-10-19T09:03:21;12.07;;;10.87;;
19089;SDS011;9677;50.656;13.064;2023-10-19T09:05:51;11.63;;;10.53;;
19089;SDS011;9677;50.656;13.064;2023-10-19T09:08:20;11.60;;;10.50;;
19089;SDS011;9677;50.656;13.064;2023-10-19T09:10:50;11.53;;;10.43;;
19089;SDS011;9677;50.656;13.064;2023-10-19T09:13:20;11.80;;;10.70;;
19089;SDS011;9677;50.656;13.064;2023-10-19T09:15:52;11.97;;;10.77;;
19089;SDS011;9677;50.656;13.064;2023-10-19T09:18:24;11.07;;;10.07;;
19089;SDS011;9677;50.656;13.064;2023-10-19T09:20:55;11.73;;;10.63;;
19089;SDS011;9677;50.656;13.064;2023-10-19T09:23:29;10.97;;;9.97;;
19089;SDS011;9677;50.656;13.064;2023-10-19T09:25:58;11.37;;;10.27;;
19089;SDS011;9677;50.656;13.064;2023-10-19T09:28:30;11.40;;;10.30;;
19089;SDS011;9677;50.656;13.064;2023-10-19T09:31:02;11.60;;;10.50;;
19089;SDS011;9677;50.656;13.064;2023-10-19T09:33:31;11.53;;;10.43;;
19089;SDS011;9677;50.656;13.064;2023-10-19T09:36:02;11.23;;;10.23;;
19089;SDS011;9677;50.656;13.064;2023-10-19T09:38:39;11.57;;;10.47;;
19089;SDS011;9677;50.656;13.064;2023-10-19T09:41:15;11.10;;;10.00;;
19089;SDS011;9677;50.656;13.064;2023-10-19T09:43:46;11.67;;;10.60;;
19089;SDS011;9677;50.656;13.064;2023-10-19T09:46:21;11.53;;;10.43;;
19089;SDS011;9677;50.656;13.064;2023-10-19T09:48:50;11.57;;;10.47;;
19089;SDS011;9677;50.656;13.064;2023-10-19T09:51:19;11.73;;;10.63;;
19089;SDS011;9677;50.656;13.064;2023-10-19T09:53:49;11.60;;;10.50;;
19089;SDS011;9677;50.656;13.064;2023-10-19T09:56:26;11.80;;;10.37;;
19089;SDS011;9677;50.656;13.064;2023-10-19T09:59:04;11.63;;;10.53;;
19089;SDS011;9677;50.656;13.064;2023-10-19T10:04:39;11.63;;;10.53;;
19089;SDS011;9677;50.656;13.064;2023-10-19T10:07:11;11.97;;;10.87;;
19089;SDS011;9677;50.656;13.064;2023-10-19T10:09:45;11.30;;;10.30;;
19089;SDS011;9677;50.656;13.064;2023-10-19T10:12:17;10.90;;;9.90;;
19089;SDS011;9677;50.656;13.064;2023-10-19T10:14:57;11.70;;;10.50;;
19089;SDS011;9677;50.656;13.064;2023-10-19T10:17:32;11.80;;;10.70;;
19089;SDS011;9677;50.656;13.064;2023-10-19T10:25:47;11.17;;;10.00;;
19089;SDS011;9677;50.656;13.064;2023-10-19T10:28:20;11.00;;;10.00;;
19089;SDS011;9677;50.656;13.064;2023-10-19T10:31:08;10.60;;;9.60;;
19089;SDS011;9677;50.656;13.064;2023-10-19T10:33:44;10.60;;;9.60;;
19089;SDS011;9677;50.656;13.064;2023-10-19T10:36:14;11.60;;;10.50;;
19089;SDS011;9677;50.656;13.064;2023-10-19T10:38:44;11.23;;;10.17;;
19089;SDS011;9677;50.656;13.064;2023-10-19T10:41:19;11.03;;;9.93;;
19089;SDS011;9677;50.656;13.064;2023-10-19T10:43:49;10.60;;;9.60;;
19089;SDS011;9677;50.656;13.064;2023-10-19T10:46:23;11.53;;;10.23;;
19089;SDS011;9677;50.656;13.064;2023-10-19T10:48:55;10.70;;;9.70;;
19089;SDS011;9677;50.656;13.064;2023-10-19T10:51:23;11.00;;;9.90;;
19089;SDS011;9677;50.656;13.064;2023-10-19T10:53:57;11.20;;;10.10;;
19089;SDS011;9677;50.656;13.064;2023-10-19T10:56:25;11.00;;;10.00;;
19089;SDS011;9677;50.656;13.064;2023-10-19T10:58:55;12.73;;;10.30;;
19089;SDS011;9677;50.656;13.064;2023-10-19T11:01:29;11.00;;;10.00;;
19089;SDS011;9677;50.656;13.064;2023-10-19T11:04:08;10.57;;;9.57;;
19089;SDS011;9677;50.656;13.064;2023-10-19T11:06:47;12.00;;;10.80;;
19089;SDS011;9677;50.656;13.064;2023-10-19T11:09:17;11.00;;;10.00;;
19089;SDS011;9677;50.656;13.064;2023-10-19T11:11:46;11.07;;;9.97;;
19089;SDS011;9677;50.656;13.064;2023-10-19T11:14:15;11.10;;;10.10;;
19089;SDS011;9677;50.656;13.064;2023-10-19T11:16:43;10.87;;;9.87;;
19089;SDS011;9677;50.656;13.064;2023-10-19T11:19:13;11.17;;;10.07;;
19089;SDS011;9677;50.656;13.064;2023-10-19T11:21:51;10.70;;;9.60;;
19089;SDS011;9677;50.656;13.064;2023-10-19T11:24:25;10.83;;;9.80;;
19089;SDS011;9677;50.656;13.064;2023-10-19T11:26:54;11.90;;;9.80;;
19089;SDS011;9677;50.656;13.064;2023-10-19T11:29:23;11.20;;;10.20;;
19089;SDS011;9677;50.656;13.064;2023-10-19T11:31:58;10.60;;;9.47;;
19089;SDS011;9677;50.656;13.064;2023-10-19T11:34:29;11.10;;;10.03;;
19089;SDS011;9677;50.656;13.064;2023-10-19T11:37:01;11.10;;;10.00;;
19089;SDS011;9677;50.656;13.064;2023-10-19T11:39:31;10.80;;;9.80;;
19089;SDS011;9677;50.656;13.064;2023-10-19T11:41:59;10.80;;;9.80;;
19089;SDS011;9677;50.656;13.064;2023-10-19T11:44:28;10.70;;;9.70;;
19089;SDS011;9677;50.656;13.064;2023-10-19T11:46:56;10.87;;;9.77;;
19089;SDS011;9677;50.656;13.064;2023-10-19T11:49:25;11.47;;;9.93;;
19089;SDS011;9677;50.656;13.064;2023-10-19T11:51:55;10.70;;;9.70;;
19089;SDS011;9677;50.656;13.064;2023-10-19T11:54:23;10.90;;;9.90;;
19089;SDS011;9677;50.656;13.064;2023-10-19T11:56:52;10.40;;;9.40;;
19089;SDS011;9677;50.656;13.064;2023-10-19T11:59:21;10.73;;;9.63;;
19089;SDS011;9677;50.656;13.064;2023-10-19T12:01:49;10.90;;;9.90;;
19089;SDS011;9677;50.656;13.064;2023-10-19T12:04:18;10.33;;;9.33;;
19089;SDS011;9677;50.656;13.064;2023-10-19T12:06:46;10.70;;;9.60;;
19089;SDS011;9677;50.656;13.064;2023-10-19T12:09:16;10.60;;;9.60;;
19089;SDS011;9677;50.656;13.064;2023-10-19T12:11:45;10.57;;;9.57;;
19089;SDS011;9677;50.656;13.064;2023-10-19T12:14:14;11.30;;;10.20;;
19089;SDS011;9677;50.656;13.064;2023-10-19T12:16:43;10.07;;;9.10;;
19089;SDS011;9677;50.656;13.064;2023-10-19T12:19:12;10.60;;;9.60;;
19089;SDS011;9677;50.656;13.064;2023-10-19T12:21:42;10.30;;;9.30;;
19089;SDS011;9677;50.656;13.064;2023-10-19T12:24:11;10.50;;;9.50;;
19089;SDS011;9677;50.656;13.064;2023-10-19T12:26:43;10.50;;;9.50;;
19089;SDS011;9677;50.656;13.064;2023-10-19T12:29:11;10.37;;;9.37;;
19089;SDS011;9677;50.656;13.064;2023-10-19T12:31:43;10.70;;;9.70;;
19089;SDS011;9677;50.656;13.064;2023-10-19T12:34:13;10.87;;;9.77;;
19089;SDS011;9677;50.656;13.064;2023-10-19T12:36:43;10.77;;;9.77;;
19089;SDS011;9677;50.656;13.064;2023-10-19T12:39:13;10.60;;;9.60;;
19089;SDS011;9677;50.656;13.064;2023-10-19T12:42:03;10.40;;;9.40;;
19089;SDS011;9677;50.656;13.064;2023-10-19T12:44:34;10.27;;;9.30;;
19089;SDS011;9677;50.656;13.064;2023-10-19T12:47:05;10.37;;;9.40;;
19089;SDS011;9677;50.656;13.064;2023-10-19T12:49:37;10.97;;;9.87;;
19089;SDS011;9677;50.656;13.064;2023-10-19T12:52:06;10.30;;;9.30;;
19089;SDS011;9677;50.656;13.064;2023-10-19T12:54:34;10.40;;;9.40;;
19089;SDS011;9677;50.656;13.064;2023-10-19T12:57:05;10.60;;;9.60;;
19089;SDS011;9677;50.656;13.064;2023-10-19T12:59:34;10.40;;;9.40;;
19089;SDS011;9677;50.656;13.064;2023-10-19T13:02:04;10.07;;;9.17;;
19089;SDS011;9677;50.656;13.064;2023-10-19T13:04:35;10.27;;;9.30;;
19089;SDS011;9677;50.656;13.064;2023-10-19T13:07:04;10.50;;;9.50;;
19089;SDS011;9677;50.656;13.064;2023-10-19T13:09:32;10.50;;;9.40;;
19089;SDS011;9677;50.656;13.064;2023-10-19T13:12:02;10.13;;;9.13;;
19089;SDS011;9677;50.656;13.064;2023-10-19T13:14:34;10.90;;;9.80;;
19089;SDS011;9677;50.656;13.064;2023-10-19T13:17:03;10.40;;;9.40;;
19089;SDS011;9677;50.656;13.064;2023-10-19T13:19:31;10.23;;;9.23;;
19089;SDS011;9677;50.656;13.064;2023-10-19T13:22:00;9.87;;;8.87;;
19089;SDS011;9677;50.656;13.064;2023-10-19T13:24:32;10.40;;;9.40;;
19089;SDS011;9677;50.656;13.064;2023-10-19T13:27:08;10.17;;;9.17;;
19089;SDS011;9677;50.656;13.064;2023-10-19T13:29:37;10.30;;;9.30;;
19089;SDS011;9677;50.656;13.064;2023-10-19T13:32:08;10.37;;;9.37;;
19089;SDS011;9677;50.656;13.064;2023-10-19T13:34:36;10.30;;;9.30;;
19089;SDS011;9677;50.656;13.064;2023-10-19T13:37:07;10.10;;;9.00;;
19089;SDS011;9677;50.656;13.064;2023-10-19T13:39:35;10.17;;;9.17;;
19089;SDS011;9677;50.656;13.064;2023-10-19T13:42:05;10.03;;;9.03;;
19089;SDS011;9677;50.656;13.064;2023-10-19T13:44:37;10.10;;;9.10;;
19089;SDS011;9677;50.656;13.064;2023-10-19T13:47:05;9.90;;;9.00;;
19089;SDS011;9677;50.656;13.064;2023-10-19T13:49:35;10.30;;;9.37;;
19089;SDS011;9677;50.656;13.064;2023-10-19T13:52:03;10.70;;;9.70;;
19089;SDS011;9677;50.656;13.064;2023-10-19T13:54:32;10.07;;;9.07;;
19089;SDS011;9677;50.656;13.064;2023-10-19T13:57:00;10.37;;;9.33;;
19089;SDS011;9677;50.656;13.064;2023-10-19T13:59:28;10.03;;;9.00;;
19089;SDS011;9677;50.656;13.064;2023-10-19T14:02:01;10.37;;;9.37;;
19089;SDS011;9677;50.656;13.064;2023-10-19T14:04:29;10.67;;;9.30;;
19089;SDS011;9677;50.656;13.064;2023-10-19T14:06:58;9.70;;;8.80;;
19089;SDS011;9677;50.656;13.064;2023-10-19T14:09:26;10.20;;;9.30;;
19089;SDS011;9677;50.656;13.064;2023-10-19T14:11:54;10.10;;;9.10;;
19089;SDS011;9677;50.656;13.064;2023-10-19T14:14:23;10.50;;;9.50;;
19089;SDS011;9677;50.656;13.064;2023-10-19T14:16:51;10.77;;;9.70;;
19089;SDS011;9677;50.656;13.064;2023-10-19T14:19:20;10.43;;;9.33;;
19089;SDS011;9677;50.656;13.064;2023-10-19T14:21:49;11.17;;;9.57;;
19089;SDS011;9677;50.656;13.064;2023-10-19T14:24:17;10.50;;;9.37;;
19089;SDS011;9677;50.656;13.064;2023-10-19T14:26:46;10.27;;;9.27;;
19089;SDS011;9677;50.656;13.064;2023-10-19T14:29:14;10.10;;;9.20;;
19089;SDS011;9677;50.656;13.064;2023-10-19T14:31:42;10.50;;;9.50;;
19089;SDS011;9677;50.656;13.064;2023-10-19T14:34:11;9.80;;;8.90;;
19089;SDS011;9677;50.656;13.064;2023-10-19T14:36:40;10.40;;;9.40;;
19089;SDS011;9677;50.656;13.064;2023-10-19T14:39:09;10.47;;;9.47;;
19089;SDS011;9677;50.656;13.064;2023-10-19T14:41:40;10.40;;;9.40;;
19089;SDS011;9677;50.656;13.064;2023-10-19T14:44:08;14.27;;;9.50;;
19089;SDS011;9677;50.656;13.064;2023-10-19T14:46:36;10.37;;;9.37;;
19089;SDS011;9677;50.656;13.064;2023-10-19T14:49:05;10.57;;;9.53;;
19089;SDS011;9677;50.656;13.064;2023-10-19T14:51:33;10.27;;;9.30;;
19089;SDS011;9677;50.656;13.064;2023-10-19T14:54:02;10.17;;;9.17;;
19089;SDS011;9677;50.656;13.064;2023-10-19T14:56:31;10.30;;;9.27;;